Time;durP1;ratioP1;P1;durP2;ratioP2;P2;SDS_P1;SDS_P2;PMS_P1;PMS_P2;Temp;Humidity;BMP_temperature;BMP_pressure;BME280_temperature;BME280_humidity;BME280_pressure;Samples;Min_cycle;Max_cycle;Signal;HPM_P1;HPM_P2
2023/12/05 00:00:17;;;;;;;2.10;1.60;;;;;;;-145.69;58.78;52301.81;5077534;28;20206;-83
2023/12/05 00:02:43;;;;;;;2.23;1.67;;;;;;;-145.69;58.76;52321.59;5078536;28;20205;-83
2023/12/05 00:05:10;;;;;;;2.10;1.50;;;;;;;-145.69;58.20;52321.59;5078704;28;20198;-83
2023/12/05 00:07:37;;;;;;;3.30;2.10;;;;;;;-145.69;58.68;52321.59;5079118;28;20198;-83
2023/12/05 00:10:04;;;;;;;2.97;1.90;;;;;;;-145.69;58.81;52361.22;5078476;28;20234;-83
2023/12/05 00:12:32;;;;;;;3.97;2.37;;;;;;;-145.69;58.98;52341.41;5077775;28;20621;-83
2023/12/05 00:14:58;;;;;;;2.90;2.10;;;;;;;-145.69;58.83;52325.56;5078895;28;20203;-84
2023/12/05 00:17:25;;;;;;;2.93;1.90;;;;;;;-145.69;59.24;52347.34;5078473;28;20209;-84
2023/12/05 00:19:52;;;;;;;3.00;2.17;;;;;;;-145.69;59.07;52313.69;5079200;28;20203;-83
2023/12/05 00:22:18;;;;;;;4.17;2.33;;;;;;;-145.69;58.94;52331.50;5079774;28;20206;-84
2023/12/05 00:24:45;;;;;;;2.73;1.77;;;;;;;-145.69;59.27;52329.53;5080351;28;20199;-84
2023/12/05 00:27:11;;;;;;;3.13;2.10;;;;;;;-145.69;59.08;52325.56;5078594;28;20209;-84
2023/12/05 00:29:39;;;;;;;3.13;2.17;;;;;;;-145.69;59.01;52297.84;5078800;28;20676;-83
2023/12/05 00:32:06;;;;;;;5.30;2.80;;;;;;;-145.69;58.46;52381.00;5077396;28;20219;-83
2023/12/05 00:34:33;;;;;;;4.20;2.63;;;;;;;-145.69;58.18;52329.53;5076352;28;20247;-83
2023/12/05 00:36:59;;;;;;;3.13;2.37;;;;;;;-145.69;58.43;52309.72;5077023;28;20203;-83
2023/12/05 00:39:26;;;;;;;4.23;2.73;;;;;;;-145.69;58.23;52301.81;5076624;28;20198;-84
2023/12/05 00:41:52;;;;;;;4.07;2.40;;;;;;;-145.69;58.16;52325.56;5076249;28;20214;-83
2023/12/05 00:44:18;;;;;;;3.67;2.40;;;;;;;-145.69;58.38;52333.47;5076673;28;20221;-83
2023/12/05 00:46:46;;;;;;;4.00;2.47;;;;;;;-145.69;58.65;52363.19;5076088;28;20206;-83
2023/12/05 00:49:13;;;;;;;3.90;2.40;;;;;;;-145.69;57.96;52357.25;5075045;28;20207;-83
2023/12/05 00:51:39;;;;;;;3.43;2.30;;;;;;;-145.69;58.67;52333.47;5076215;28;20256;-83
2023/12/05 00:54:06;;;;;;;3.73;1.87;;;;;;;-145.69;58.76;52315.66;5075372;28;20561;-83
2023/12/05 00:56:32;;;;;;;3.57;2.30;;;;;;;-145.69;59.01;52303.78;5075027;28;20198;-83
2023/12/05 00:58:59;;;;;;;4.10;2.20;;;;;;;-145.69;59.32;52333.47;5075186;28;20211;-84
2023/12/05 01:01:25;;;;;;;3.07;2.13;;;;;;;-145.69;59.13;52321.59;5075094;28;20623;-84
2023/12/05 01:03:56;;;;;;;3.87;2.83;;;;;;;-145.69;59.19;52341.41;5074988;28;20543;-83
2023/12/05 01:06:23;;;;;;;3.00;2.30;;;;;;;-145.69;59.13;52349.31;5072655;28;20201;-83
2023/12/05 01:08:49;;;;;;;3.03;2.30;;;;;;;-145.69;59.44;52329.53;5074656;28;20243;-84
2023/12/05 01:11:16;;;;;;;3.37;2.30;;;;;;;-145.69;59.22;52349.31;5074559;28;20669;-83
2023/12/05 01:13:43;;;;;;;3.70;2.33;;;;;;;-145.69;59.14;52313.69;5074628;28;20231;-83
2023/12/05 01:16:10;;;;;;;3.47;2.17;;;;;;;-145.69;59.04;52307.75;5074899;28;20325;-83
2023/12/05 01:18:37;;;;;;;4.37;2.47;;;;;;;-145.69;58.83;52303.78;5074530;28;20214;-84
2023/12/05 01:21:05;;;;;;;4.87;2.47;;;;;;;-145.69;58.97;52345.38;5074550;28;20199;-83
2023/12/05 01:23:32;;;;;;;3.07;2.17;;;;;;;-145.69;58.67;52339.44;5074602;28;20654;-83
2023/12/05 01:25:58;;;;;;;4.20;2.27;;;;;;;-145.69;58.76;52301.81;5074006;28;20198;-84
2023/12/05 01:28:25;;;;;;;4.33;2.83;;;;;;;-145.69;58.81;52325.56;5074482;28;20218;-83
2023/12/05 01:30:51;;;;;;;3.97;2.67;;;;;;;-145.69;59.07;52341.41;5074431;28;20206;-83
2023/12/05 01:33:18;;;;;;;5.83;2.77;;;;;;;-145.69;59.48;52335.47;5072448;28;20305;-83
2023/12/05 01:35:44;;;;;;;3.60;2.40;;;;;;;-145.69;59.38;52325.56;5073645;28;20203;-84
2023/12/05 01:38:12;;;;;;;4.20;2.57;;;;;;;-145.69;60.14;52325.56;5074363;28;20210;-83
2023/12/05 01:40:39;;;;;;;3.17;2.40;;;;;;;-145.69;59.96;52375.06;5075175;28;20596;-82
2023/12/05 01:43:05;;;;;;;5.20;3.00;;;;;;;-145.69;60.30;52317.66;5075854;28;20209;-82
2023/12/05 01:45:31;;;;;;;3.80;2.70;;;;;;;-145.69;60.99;52333.47;5075481;28;20203;-83
2023/12/05 01:47:58;;;;;;;4.07;2.50;;;;;;;-145.69;60.38;52337.44;5076743;28;20191;-83
2023/12/05 01:50:28;;;;;;;4.93;2.63;;;;;;;-145.69;61.60;52345.38;5075503;28;20199;-82
2023/12/05 01:52:57;;;;;;;3.83;2.20;;;;;;;-145.69;61.55;52333.47;5075959;28;20257;-83
2023/12/05 01:55:28;;;;;;;5.30;3.00;;;;;;;-145.69;61.80;52295.84;5074309;28;20199;-82
2023/12/05 01:57:55;;;;;;;3.00;2.23;;;;;;;-145.69;61.71;52357.25;5073442;28;20297;-82
2023/12/05 02:00:23;;;;;;;3.67;2.40;;;;;;;-145.69;62.56;52349.31;5073872;28;20206;-81
2023/12/05 02:02:50;;;;;;;5.97;2.67;;;;;;;-145.69;63.31;52325.56;5073874;28;20199;-81
2023/12/05 02:05:17;;;;;;;4.27;2.57;;;;;;;-145.69;64.58;52359.22;5073511;28;20213;-81
2023/12/05 02:07:44;;;;;;;5.63;2.53;;;;;;;-145.69;64.26;52337.44;5073411;28;20203;-82
2023/12/05 02:10:10;;;;;;;6.93;3.20;;;;;;;-145.69;64.31;52353.28;5073498;28;20234;-82
2023/12/05 02:12:39;;;;;;;6.37;3.60;;;;;;;-145.69;63.56;52349.31;5073633;28;20254;-81
2023/12/05 02:15:07;;;;;;;4.80;3.00;;;;;;;-145.69;62.54;52357.25;5073302;28;20198;-81
2023/12/05 02:17:41;;;;;;;5.50;3.00;;;;;;;-145.69;62.21;52325.56;5073334;28;20195;-82
2023/12/05 02:20:11;;;;;;;5.80;3.10;;;;;;;-145.69;62.77;52369.13;5073491;28;20203;-82
2023/12/05 02:23:02;;;;;;;4.40;2.83;;;;;;;-145.69;63.31;52321.59;5073980;28;20205;-83
2023/12/05 02:25:47;;;;;;;4.73;2.90;;;;;;;-145.69;64.32;52373.09;5073232;28;20211;-82
2023/12/05 02:28:16;;;;;;;8.17;3.43;;;;;;;-145.69;64.41;52331.50;5072841;28;20437;-82
2023/12/05 02:30:43;;;;;;;5.13;2.93;;;;;;;-145.69;63.88;52369.13;5071518;28;20206;-82
2023/12/05 02:33:10;;;;;;;5.13;2.80;;;;;;;-145.69;63.39;52343.38;5072917;28;20284;-82
2023/12/05 02:35:37;;;;;;;3.70;2.40;;;;;;;-145.69;63.23;52337.44;5072056;28;20199;-82
2023/12/05 02:38:10;;;;;;;4.40;2.90;;;;;;;-145.69;62.42;52305.75;5073056;28;20210;-82
2023/12/05 02:40:42;;;;;;;4.90;2.67;;;;;;;-145.69;62.76;52333.47;5073200;28;20202;-82
2023/12/05 02:43:12;;;;;;;4.23;2.60;;;;;;;-145.69;61.91;52331.50;5071379;28;20302;-83
2023/12/05 02:45:44;;;;;;;4.07;2.40;;;;;;;-145.69;61.06;52333.47;5072623;28;20199;-83
2023/12/05 02:48:12;;;;;;;4.10;2.20;;;;;;;-145.69;61.16;52325.56;5072702;28;20195;-83
2023/12/05 02:50:38;;;;;;;3.40;2.07;;;;;;;-145.69;62.30;52379.03;5072742;28;20285;-82
2023/12/05 02:53:05;;;;;;;4.00;2.67;;;;;;;-145.69;62.11;52357.25;5068860;28;20226;-82
2023/12/05 02:55:32;;;;;;;4.10;2.00;;;;;;;-145.69;62.70;52335.47;5061090;28;20206;-82
2023/12/05 02:57:58;;;;;;;3.17;2.37;;;;;;;-145.69;63.77;52384.97;5073635;28;20206;-83
2023/12/05 03:00:25;;;;;;;3.17;2.10;;;;;;;-145.69;63.56;52341.41;5074589;28;20206;-83
2023/12/05 03:02:52;;;;;;;3.13;1.97;;;;;;;-145.69;63.76;52345.38;5071204;28;20283;-83
2023/12/05 03:05:19;;;;;;;3.57;2.30;;;;;;;-145.69;63.21;52347.34;5073957;28;20207;-83
2023/12/05 03:07:48;;;;;;;2.77;1.90;;;;;;;-145.69;63.58;52329.53;5073271;28;20210;-83
2023/12/05 03:10:15;;;;;;;4.57;2.30;;;;;;;-145.69;63.51;52377.06;5075390;28;20238;-84
2023/12/05 03:12:41;;;;;;;2.73;1.93;;;;;;;-145.69;64.36;52365.16;5074823;28;20222;-83
2023/12/05 03:15:09;;;;;;;2.80;1.73;;;;;;;-145.69;64.10;52349.31;5075186;28;20642;-83
2023/12/05 03:17:35;;;;;;;3.40;2.10;;;;;;;-145.69;64.08;52341.41;5073774;28;20203;-83
2023/12/05 03:20:04;;;;;;;2.83;1.90;;;;;;;-145.69;63.91;52365.16;5072797;28;20206;-82
2023/12/05 03:22:30;;;;;;;2.93;1.97;;;;;;;-145.69;64.16;52337.44;5072232;28;20198;-83
2023/12/05 03:24:57;;;;;;;2.83;1.93;;;;;;;-145.69;64.39;52367.16;5072683;28;20203;-82
2023/12/05 03:27:24;;;;;;;1.67;1.43;;;;;;;-145.69;64.34;52333.47;5072604;28;20233;-83
2023/12/05 03:29:50;;;;;;;2.60;1.60;;;;;;;-145.69;64.54;52369.13;5073801;28;20616;-83
2023/12/05 03:32:17;;;;;;;3.60;2.00;;;;;;;-145.69;64.21;52361.22;5074255;28;20203;-83
2023/12/05 03:34:43;;;;;;;2.50;1.67;;;;;;;-145.69;64.20;52345.38;5073329;28;20601;-83
2023/12/05 03:37:11;;;;;;;2.87;1.87;;;;;;;-145.69;65.17;52357.25;5074064;28;20214;-83
2023/12/05 03:39:38;;;;;;;2.47;1.80;;;;;;;-145.69;64.44;52349.31;5074044;28;20638;-83
2023/12/05 03:42:04;;;;;;;2.43;1.70;;;;;;;-145.69;64.88;52357.25;5074430;28;20641;-83
2023/12/05 03:44:31;;;;;;;2.63;1.73;;;;;;;-145.69;64.50;52361.22;5074676;28;20206;-83
2023/12/05 03:46:57;;;;;;;2.97;1.80;;;;;;;-145.69;65.18;52345.38;5074903;28;20199;-83
2023/12/05 03:49:24;;;;;;;2.97;1.57;;;;;;;-145.69;65.01;52365.16;5075222;28;20199;-83
2023/12/05 03:51:51;;;;;;;3.60;1.70;;;;;;;-145.69;65.11;52381.00;5074328;28;20244;-83
2023/12/05 03:54:18;;;;;;;1.87;1.60;;;;;;;-145.69;64.60;52349.31;5073847;28;20227;-83
2023/12/05 03:56:45;;;;;;;3.97;1.70;;;;;;;-145.69;65.05;52371.13;5074240;28;20202;-83
2023/12/05 03:59:11;;;;;;;2.47;1.60;;;;;;;-145.69;63.99;52359.22;5077532;28;20207;-83
2023/12/05 04:01:38;;;;;;;4.97;1.53;;;;;;;-145.69;65.04;52345.38;5078476;28;20210;-83
2023/12/05 04:04:05;;;;;;;1.70;1.20;;;;;;;-145.69;64.83;52353.28;5078205;28;20199;-83
2023/12/05 04:06:31;;;;;;;2.23;1.57;;;;;;;-145.69;64.98;52386.97;5077694;28;20589;-84
2023/12/05 04:08:58;;;;;;;3.93;1.67;;;;;;;-145.69;66.27;52353.28;5077661;28;20235;-83
2023/12/05 04:11:33;;;;;;;2.67;1.80;;;;;;;-145.69;66.02;52345.38;5077762;28;20203;-84
2023/12/05 04:14:00;;;;;;;3.00;1.40;;;;;;;-145.69;65.38;52359.22;5077505;28;20643;-84
2023/12/05 04:16:27;;;;;;;3.27;1.57;;;;;;;-145.69;65.20;52353.28;5077377;28;20209;-83
2023/12/05 04:18:54;;;;;;;1.93;1.20;;;;;;;-145.69;64.12;52317.66;5076956;28;20203;-84
2023/12/05 04:21:21;;;;;;;2.13;1.50;;;;;;;-145.69;65.08;52331.50;5077118;28;20289;-83
2023/12/05 04:23:48;;;;;;;2.90;1.83;;;;;;;-145.69;65.34;52339.44;5076031;28;20195;-84
2023/12/05 04:26:15;;;;;;;4.13;1.70;;;;;;;-145.69;65.14;52365.16;5077586;28;20199;-84
2023/12/05 04:28:43;;;;;;;2.37;1.30;;;;;;;-145.69;64.99;52345.38;5077152;28;20210;-84
2023/12/05 04:31:11;;;;;;;3.63;1.70;;;;;;;-145.69;64.41;52343.38;5075502;28;20252;-84
2023/12/05 04:33:39;;;;;;;2.70;1.37;;;;;;;-145.69;64.50;52359.22;5077304;28;20226;-84
2023/12/05 04:36:06;;;;;;;2.13;1.30;;;;;;;-145.69;64.47;52383.00;5076607;28;20660;-84
2023/12/05 04:38:34;;;;;;;1.90;1.33;;;;;;;-145.69;64.69;52424.59;5076832;28;20202;-83
2023/12/05 04:41:00;;;;;;;2.07;1.47;;;;;;;-145.69;64.44;52331.50;5076486;28;20206;-84
2023/12/05 04:43:26;;;;;;;3.50;1.57;;;;;;;-145.69;66.37;52345.38;5076921;28;20203;-84
2023/12/05 04:45:54;;;;;;;2.03;1.40;;;;;;;-145.69;65.38;52369.13;5077329;28;20261;-84
2023/12/05 04:48:21;;;;;;;2.17;1.30;;;;;;;-145.69;64.71;52377.06;5076627;28;20247;-83
2023/12/05 04:50:47;;;;;;;2.07;1.20;;;;;;;-145.69;65.10;52371.13;5078029;28;20199;-84
2023/12/05 04:53:14;;;;;;;2.00;1.40;;;;;;;-145.69;65.51;52363.19;5061527;28;20230;-84
2023/12/05 04:55:41;;;;;;;2.10;1.60;;;;;;;-145.69;65.66;52381.00;5057066;28;20646;-83
2023/12/05 04:58:07;;;;;;;2.07;1.60;;;;;;;-145.69;66.50;52357.25;5068196;28;20195;-83
2023/12/05 05:00:37;;;;;;;3.23;1.80;;;;;;;-145.69;67.18;52369.13;5061280;28;20202;-83
2023/12/05 05:03:05;;;;;;;6.07;1.63;;;;;;;-145.69;67.23;52323.59;5056134;28;20590;-83
2023/12/05 05:05:32;;;;;;;6.47;2.00;;;;;;;-145.69;67.26;52337.44;5057143;28;20203;-84
2023/12/05 05:07:58;;;;;;;3.10;2.00;;;;;;;-145.69;67.76;52357.25;5055897;28;20448;-83
2023/12/05 05:10:25;;;;;;;3.67;2.00;;;;;;;-145.69;67.18;52377.06;5055907;28;20231;-84
2023/12/05 05:12:52;;;;;;;3.43;1.73;;;;;;;-145.69;66.39;52359.22;5056606;28;20647;-84
2023/12/05 05:15:18;;;;;;;4.37;1.97;;;;;;;-145.69;66.28;52359.22;5056731;28;20213;-84
2023/12/05 05:17:45;;;;;;;2.20;1.70;;;;;;;-145.69;65.88;52353.28;5064173;28;20210;-83
2023/12/05 05:20:13;;;;;;;2.40;1.40;;;;;;;-145.69;65.51;52337.44;5076219;28;20199;-84
2023/12/05 05:22:39;;;;;;;5.00;1.93;;;;;;;-145.69;65.31;52377.06;5076996;28;20230;-84
2023/12/05 05:25:08;;;;;;;2.80;1.80;;;;;;;-145.69;65.56;52353.28;5077071;28;20210;-84
2023/12/05 05:27:34;;;;;;;2.33;1.60;;;;;;;-145.69;65.34;52373.09;5076585;28;20198;-84
2023/12/05 05:30:01;;;;;;;2.87;1.60;;;;;;;-145.69;65.16;52341.41;5075604;28;20195;-84
2023/12/05 05:32:27;;;;;;;4.57;1.70;;;;;;;-145.69;64.94;52321.59;5076297;28;20199;-84
2023/12/05 05:34:54;;;;;;;4.67;2.33;;;;;;;-145.69;65.31;52345.38;5076153;28;20226;-84
2023/12/05 05:37:22;;;;;;;5.70;2.27;;;;;;;-145.69;64.39;52361.22;5076366;28;20244;-84
2023/12/05 05:39:48;;;;;;;3.23;2.20;;;;;;;-145.69;64.36;52396.84;5075584;28;20553;-84
2023/12/05 05:42:15;;;;;;;5.20;2.20;;;;;;;-145.69;64.77;52373.09;5075958;28;20210;-83
2023/12/05 05:44:41;;;;;;;2.90;2.03;;;;;;;-145.69;65.50;52375.06;5076207;28;20199;-84
2023/12/05 05:47:08;;;;;;;2.73;1.87;;;;;;;-145.69;64.79;52343.38;5075557;28;20202;-83
2023/12/05 05:49:34;;;;;;;5.20;2.73;;;;;;;-145.69;64.11;52390.91;5071868;28;20201;-84
2023/12/05 05:52:01;;;;;;;4.60;3.40;;;;;;;-145.69;64.39;52345.38;5075752;28;20546;-83
2023/12/05 05:54:28;;;;;;;4.57;2.10;;;;;;;-145.69;66.26;52377.06;5075370;28;20242;-84
2023/12/05 05:56:55;;;;;;;3.90;2.17;;;;;;;-145.69;65.80;52367.16;5075678;28;20206;-83
2023/12/05 05:59:21;;;;;;;3.30;1.90;;;;;;;-145.69;64.71;52337.44;5075398;28;20199;-84
2023/12/05 06:01:48;;;;;;;5.67;2.30;;;;;;;-145.69;64.32;52384.97;5076291;28;20217;-84
2023/12/05 06:04:15;;;;;;;4.87;2.00;;;;;;;-145.69;64.83;52398.84;5075361;28;20203;-84
2023/12/05 06:06:41;;;;;;;4.23;2.10;;;;;;;-145.69;64.93;52361.22;5075156;28;20562;-84
2023/12/05 06:09:07;;;;;;;2.87;2.00;;;;;;;-145.69;64.94;52396.84;5075152;28;20231;-84
2023/12/05 06:11:35;;;;;;;7.67;1.90;;;;;;;-145.69;66.58;52367.16;5073738;28;20195;-84
2023/12/05 06:14:03;;;;;;;3.77;1.73;;;;;;;-145.69;66.63;52381.00;5075754;28;20226;-84
2023/12/05 06:16:30;;;;;;;3.30;1.70;;;;;;;-145.69;65.61;52394.88;5073640;28;20195;-83
2023/12/05 06:18:57;;;;;;;1.93;1.50;;;;;;;-145.69;65.43;52369.13;5059648;28;20195;-84
2023/12/05 06:21:23;;;;;;;7.27;2.37;;;;;;;-145.69;65.32;52404.78;5054720;28;20203;-84
2023/12/05 06:23:50;;;;;;;4.30;1.80;;;;;;;-145.69;66.08;52388.94;5054833;28;20211;-84
2023/12/05 06:26:18;;;;;;;4.03;1.43;;;;;;;-145.69;68.17;52367.16;5054880;28;20238;-83
2023/12/05 06:28:46;;;;;;;3.00;1.70;;;;;;;-145.69;67.35;52390.91;5055682;28;20191;-84
2023/12/05 06:31:12;;;;;;;6.40;1.80;;;;;;;-145.69;66.51;52365.16;5054090;28;20662;-83
2023/12/05 06:33:39;;;;;;;3.00;1.60;;;;;;;-145.69;65.64;52404.78;5054394;28;20223;-84
2023/12/05 06:36:06;;;;;;;5.57;1.77;;;;;;;-145.69;65.58;52361.22;5053556;28;20196;-83
2023/12/05 06:38:33;;;;;;;6.97;1.90;;;;;;;-145.69;65.63;52355.28;5053016;28;20666;-83
2023/12/05 06:41:00;;;;;;;2.87;1.50;;;;;;;-145.69;65.31;52381.00;5054139;28;20559;-83
2023/12/05 06:43:26;;;;;;;7.50;1.53;;;;;;;-145.69;66.09;52388.94;5053581;28;20219;-83
2023/12/05 06:45:54;;;;;;;8.60;1.50;;;;;;;-145.69;65.97;52384.97;5053651;28;20565;-83
2023/12/05 06:48:20;;;;;;;8.33;1.53;;;;;;;-145.69;65.79;52369.13;5062307;28;20209;-83
2023/12/05 06:50:48;;;;;;;7.33;1.70;;;;;;;-145.69;65.57;52367.16;5073350;28;20210;-83
2023/12/05 06:53:14;;;;;;;4.43;1.80;;;;;;;-145.69;65.88;52392.91;5069456;28;20231;-83
2023/12/05 06:55:41;;;;;;;9.97;1.50;;;;;;;-145.69;66.08;52390.91;5068735;28;20234;-84
2023/12/05 06:58:07;;;;;;;3.77;1.40;;;;;;;-145.69;65.92;52345.38;5073161;28;20682;-84
2023/12/05 07:00:34;;;;;;;4.80;1.60;;;;;;;-145.69;66.52;52361.22;5059269;28;20196;-84
2023/12/05 07:03:02;;;;;;;10.10;2.07;;;;;;;-145.69;67.13;52375.06;5053245;28;20256;-83
2023/12/05 07:05:28;;;;;;;4.40;1.40;;;;;;;-145.69;67.40;52392.91;5053363;28;20286;-83
2023/12/05 07:07:56;;;;;;;6.23;1.77;;;;;;;-145.69;67.30;52369.13;5053036;28;20650;-83
2023/12/05 07:10:23;;;;;;;3.70;1.90;;;;;;;-145.69;67.38;52386.97;5052876;28;20285;-83
2023/12/05 07:12:49;;;;;;;6.47;2.90;;;;;;;-145.69;67.20;52365.16;5052721;28;20199;-82
2023/12/05 07:15:16;;;;;;;5.70;2.83;;;;;;;-145.69;67.08;52388.94;5052551;28;20704;-82
2023/12/05 07:17:44;;;;;;;11.80;2.23;;;;;;;-145.69;67.05;52369.13;5056746;28;20199;-83
2023/12/05 07:20:18;;;;;;;3.83;1.57;;;;;;;-145.69;66.60;52341.41;5072351;28;20680;-82
2023/12/05 07:22:49;;;;;;;5.43;1.97;;;;;;;-145.69;66.15;52365.16;5071984;28;20248;-83
2023/12/05 07:25:16;;;;;;;4.23;1.77;;;;;;;-145.69;65.42;52373.09;5072434;28;20206;-83
2023/12/05 07:27:42;;;;;;;3.00;1.63;;;;;;;-145.69;65.36;52396.84;5072700;28;20281;-83
2023/12/05 07:30:09;;;;;;;7.47;3.13;;;;;;;-145.69;64.90;52396.84;5072594;28;20206;-83
2023/12/05 07:32:39;;;;;;;15.60;4.60;;;;;;;-145.69;64.86;52345.38;5073510;28;20691;-83
2023/12/05 07:35:06;;;;;;;7.93;3.60;;;;;;;-145.69;65.44;52365.16;5077038;28;20230;-84
2023/12/05 07:37:38;;;;;;;10.30;3.47;;;;;;;-145.69;64.83;52381.00;5077541;28;20207;-84
2023/12/05 07:40:06;;;;;;;102.33;25.57;;;;;;;-145.69;65.08;52335.47;5077237;28;20203;-83
2023/12/05 07:42:32;;;;;;;27.70;8.53;;;;;;;-145.69;65.71;52373.09;5078040;28;20210;-84
2023/12/05 07:45:05;;;;;;;41.37;11.87;;;;;;;-145.69;65.71;52345.38;5077629;28;20646;-84
2023/12/05 07:47:31;;;;;;;63.33;20.83;;;;;;;-145.69;65.97;52343.38;5075992;28;20209;-84
2023/12/05 07:49:58;;;;;;;47.17;14.93;;;;;;;-145.69;66.74;52394.88;5058062;28;20750;-84
2023/12/05 07:52:26;;;;;;;17.13;6.67;;;;;;;-145.69;66.06;52355.28;5057390;28;20195;-84
2023/12/05 07:54:57;;;;;;;12.00;4.63;;;;;;;-145.69;66.53;52377.06;5056939;28;20235;-84
2023/12/05 07:57:29;;;;;;;9.27;4.90;;;;;;;-145.69;65.77;52331.50;5057219;28;20227;-84
2023/12/05 08:00:04;;;;;;;8.13;2.80;;;;;;;-145.69;65.62;52369.13;5056401;28;20207;-84
2023/12/05 08:02:35;;;;;;;5.03;2.60;;;;;;;-145.69;64.21;52325.56;5056661;28;20207;-83
2023/12/05 08:05:04;;;;;;;10.80;2.70;;;;;;;-145.69;64.68;52355.28;5056860;28;20238;-84
2023/12/05 08:07:31;;;;;;;9.20;2.50;;;;;;;-145.69;64.03;52343.38;5057398;28;20203;-84
2023/12/05 08:09:59;;;;;;;7.67;2.80;;;;;;;-145.69;62.64;52333.47;5056821;28;20235;-84
2023/12/05 08:12:28;;;;;;;4.07;2.27;;;;;;;-145.69;62.80;52321.59;5056398;28;20227;-84
2023/12/05 08:14:54;;;;;;;6.43;2.47;;;;;;;-145.69;60.61;52345.38;5057066;28;20234;-84
2023/12/05 08:17:21;;;;;;;6.10;2.57;;;;;;;-145.69;61.97;52333.47;5056360;28;20736;-84
2023/12/05 08:19:50;;;;;;;5.97;2.17;;;;;;;-145.69;60.81;52353.28;5056153;28;20639;-84
2023/12/05 08:22:21;;;;;;;3.83;2.10;;;;;;;-145.69;60.08;52337.44;5056340;28;20202;-84
2023/12/05 08:24:48;;;;;;;3.57;2.10;;;;;;;-145.69;60.40;52337.44;5056600;28;20206;-84
2023/12/05 08:27:18;;;;;;;4.17;2.23;;;;;;;-145.69;58.32;52337.44;5056678;28;20200;-84
2023/12/05 08:29:46;;;;;;;5.70;2.20;;;;;;;-145.69;58.95;52347.34;5056320;28;20201;-84
2023/12/05 08:32:21;;;;;;;4.13;2.00;;;;;;;-145.69;57.83;52379.03;5056106;28;20234;-84
2023/12/05 08:34:47;;;;;;;2.43;1.80;;;;;;;-145.69;57.08;52329.53;5055887;28;20215;-84
2023/12/05 08:37:16;;;;;;;3.37;1.80;;;;;;;-145.69;57.22;52341.41;5055823;28;20214;-84
2023/12/05 08:39:43;;;;;;;3.63;2.03;;;;;;;-145.69;57.10;52313.69;5055606;28;20203;-84
2023/12/05 08:42:12;;;;;;;3.83;2.00;;;;;;;-145.69;56.00;52325.56;5055707;28;20203;-85
2023/12/05 08:44:45;;;;;;;2.50;1.53;;;;;;;-145.69;55.64;52289.91;5055264;28;20210;-84
2023/12/05 08:47:13;;;;;;;3.10;1.67;;;;;;;-145.69;55.22;52345.38;5055888;28;20196;-85
2023/12/05 08:49:51;;;;;;;3.70;1.70;;;;;;;-145.69;54.97;52325.56;5065602;28;20195;-84
2023/12/05 08:52:17;;;;;;;2.93;1.80;;;;;;;-145.69;55.21;52333.47;5055399;28;20199;-84
2023/12/05 08:54:45;;;;;;;2.90;1.80;;;;;;;-145.69;55.42;52309.72;5054951;28;20223;-84
2023/12/05 08:57:13;;;;;;;2.40;1.53;;;;;;;-145.69;54.99;52353.28;5055063;28;20219;-84
2023/12/05 08:59:40;;;;;;;3.47;1.57;;;;;;;-145.69;54.48;52373.09;5055271;28;20256;-84
2023/12/05 09:02:10;;;;;;;2.87;1.67;;;;;;;-145.69;54.80;52335.47;5054780;28;20294;-84
2023/12/05 09:04:37;;;;;;;4.60;2.17;;;;;;;-145.69;54.93;52315.66;5057658;28;20641;-84
2023/12/05 09:07:06;;;;;;;4.20;1.63;;;;;;;-145.69;54.25;52299.81;5055839;28;20196;-84
2023/12/05 09:09:33;;;;;;;2.60;1.60;;;;;;;-145.69;54.36;52347.34;5054894;28;20285;-84
2023/12/05 09:12:06;;;;;;;4.27;2.00;;;;;;;-145.69;53.95;52329.53;5054409;28;20233;-84
2023/12/05 09:14:35;;;;;;;2.23;1.60;;;;;;;-145.69;53.73;52305.75;5054797;28;20230;-85
2023/12/05 09:17:03;;;;;;;2.30;1.70;;;;;;;-145.69;54.18;52301.81;5055037;28;20250;-85
2023/12/05 09:19:31;;;;;;;2.33;1.57;;;;;;;-145.69;54.40;52363.19;5055348;28;20290;-85
2023/12/05 09:21:57;;;;;;;6.87;1.90;;;;;;;-145.69;53.75;52313.69;5055040;28;20609;-84
2023/12/05 09:24:24;;;;;;;3.70;1.77;;;;;;;-145.69;54.85;52335.47;5054990;28;20200;-84
2023/12/05 09:26:51;;;;;;;4.23;1.50;;;;;;;-145.69;54.69;52295.84;5054842;28;20203;-85
2023/12/05 09:29:17;;;;;;;2.23;1.20;;;;;;;-145.69;54.74;52301.81;5054524;28;20207;-84
2023/12/05 09:31:46;;;;;;;103.90;24.37;;;;;;;-145.69;53.65;52329.53;5054667;28;20195;-84
2023/12/05 09:34:14;;;;;;;8.37;3.60;;;;;;;-145.69;52.92;52303.78;5054661;28;20207;-83
2023/12/05 09:36:46;;;;;;;3.53;2.00;;;;;;;-145.69;52.75;52311.69;5054423;28;20226;-83
2023/12/05 09:39:15;;;;;;;3.60;1.30;;;;;;;-145.69;53.26;52305.75;5055604;28;20194;-83
2023/12/05 09:41:48;;;;;;;2.03;1.47;;;;;;;-145.69;51.96;52285.97;5054936;28;20199;-82
2023/12/05 09:44:23;;;;;;;3.40;1.33;;;;;;;-145.69;52.37;52291.91;5055091;28;20207;-82
2023/12/05 09:46:52;;;;;;;3.50;1.73;;;;;;;-145.69;51.81;52313.69;5055035;28;20199;-83
2023/12/05 09:49:21;;;;;;;2.40;1.57;;;;;;;-145.69;52.33;52293.88;5067056;28;20248;-82
2023/12/05 09:51:49;;;;;;;4.77;1.30;;;;;;;-145.69;52.69;52293.88;5074682;28;20198;-82
2023/12/05 09:54:16;;;;;;;2.73;1.40;;;;;;;-145.69;52.57;52282.00;5074303;28;20202;-82
2023/12/05 09:56:45;;;;;;;3.27;0.97;;;;;;;-145.69;51.40;52266.16;5074337;28;20317;-83
2023/12/05 09:59:14;;;;;;;1.73;0.93;;;;;;;-145.69;50.38;52282.00;5075122;28;20207;-81
2023/12/05 10:01:45;;;;;;;1.97;1.00;;;;;;;-145.69;50.09;52278.03;5074770;28;20586;-82
2023/12/05 10:04:13;;;;;;;2.90;1.20;;;;;;;-145.69;49.55;52282.00;5074349;28;20202;-82
2023/12/05 10:06:46;;;;;;;2.33;1.20;;;;;;;-145.69;49.59;52287.94;5073495;28;20199;-84
2023/12/05 10:09:20;;;;;;;3.07;1.20;;;;;;;-145.69;48.72;52297.84;5069978;28;20237;-84
2023/12/05 10:11:51;;;;;;;2.60;1.00;;;;;;;-145.69;48.94;52262.19;5073457;28;20612;-84
2023/12/05 10:14:18;;;;;;;2.08;0.90;;;;;;;-145.69;48.82;52283.97;5072591;28;20869;-85
2023/12/05 10:16:49;;;;;;;2.63;1.30;;;;;;;-145.69;48.62;52283.97;5074158;28;20230;-85
2023/12/05 10:19:21;;;;;;;2.00;1.00;;;;;;;-145.69;48.64;52341.41;5072380;28;20202;-86
2023/12/05 10:21:50;;;;;;;3.00;1.00;;;;;;;-145.69;49.88;52299.81;5079665;28;20573;-86
2023/12/05 10:24:20;;;;;;;2.53;0.93;;;;;;;-145.69;49.33;52248.34;5059471;28;20202;-85
2023/12/05 10:26:47;;;;;;;1.93;0.90;;;;;;;-145.69;49.73;52299.81;5058204;28;20718;-85
2023/12/05 10:29:17;;;;;;;0.70;0.67;;;;;;;-145.69;49.80;52276.06;5077686;28;20233;-85
2023/12/05 10:31:45;;;;;;;0.70;0.70;;;;;;;-145.69;49.85;52266.16;5080263;28;20237;-85
2023/12/05 10:34:11;;;;;;;2.80;0.97;;;;;;;-145.69;49.88;52285.97;5077341;28;20249;-85
2023/12/05 10:36:38;;;;;;;1.10;0.87;;;;;;;-145.69;49.80;52276.06;5076933;28;20681;-84
2023/12/05 10:39:05;;;;;;;3.90;0.87;;;;;;;-145.69;49.81;52313.69;5060884;28;20230;-84
2023/12/05 10:41:33;;;;;;;3.10;0.80;;;;;;;-145.69;50.42;52293.88;5055675;28;20207;-83
2023/12/05 10:44:02;;;;;;;3.27;0.80;;;;;;;-145.69;50.42;52274.06;5076632;28;20206;-84
2023/12/05 10:46:29;;;;;;;5.63;1.00;;;;;;;-145.69;49.91;52262.19;5084144;28;20608;-84
2023/12/05 10:48:59;;;;;;;1.27;0.80;;;;;;;-145.69;50.67;52289.91;5066253;28;20191;-83
2023/12/05 10:51:26;;;;;;;1.33;0.70;;;;;;;-145.69;51.03;52289.91;5080919;28;20205;-83
2023/12/05 10:53:56;;;;;;;1.00;0.70;;;;;;;-145.69;51.02;52272.09;5083876;28;20203;-83
2023/12/05 10:56:23;;;;;;;0.70;0.50;;;;;;;-145.69;51.53;52287.94;5082943;28;20721;-83
2023/12/05 10:58:53;;;;;;;0.83;0.67;;;;;;;-145.69;50.44;52274.06;5084057;28;20203;-83
2023/12/05 11:01:21;;;;;;;1.53;0.90;;;;;;;-145.69;50.49;52295.84;5076697;28;20199;-83
2023/12/05 11:03:51;;;;;;;1.27;0.87;;;;;;;-145.69;50.38;52274.06;5077234;28;20245;-83
2023/12/05 11:06:22;;;;;;;1.33;0.70;;;;;;;-145.69;50.04;52258.22;5079219;28;20237;-83
2023/12/05 11:08:51;;;;;;;0.63;0.60;;;;;;;-145.69;49.98;52301.81;5069855;28;20245;-83
2023/12/05 11:11:18;;;;;;;1.40;0.70;;;;;;;-145.69;51.10;52321.59;5058989;28;20210;-83
2023/12/05 11:13:48;;;;;;;1.53;0.70;;;;;;;-145.69;51.53;52313.69;5067104;28;20191;-83
2023/12/05 11:16:24;;;;;;;1.17;0.77;;;;;;;-145.69;51.53;52297.84;5073648;28;20223;-83
2023/12/05 11:18:58;;;;;;;1.90;0.80;;;;;;;-145.69;51.82;52297.84;5073343;28;20198;-82